createdAt,value
2022-10-23T10:02:27.068Z,46.41
2022-10-23T10:06:59.553Z,47.52
2022-10-23T10:14:37.514Z,38.91
2022-10-23T10:21:32.928Z,44.19
2022-10-23T10:24:05.396Z,44.00
2022-10-23T10:26:38.653Z,44.42
2022-10-23T10:29:17.861Z,45.11
2022-10-23T10:32:10.326Z,44.16
2022-10-23T10:34:49.047Z,43.26
2022-10-23T10:37:39.935Z,44.44
2022-10-23T10:40:29.885Z,43.22
2022-10-23T10:43:05.083Z,42.75
2022-10-23T10:45:38.108Z,42.66
2022-10-23T10:48:25.955Z,42.81
2022-10-23T10:50:53.438Z,41.35
2022-10-23T10:53:44.837Z,42.50
2022-10-23T10:56:15.903Z,43.52
2022-10-23T10:58:48.885Z,43.06
2022-10-23T11:01:57.668Z,41.67
2022-10-23T11:04:52.888Z,40.88
2022-10-23T11:07:22.505Z,42.33
2022-10-23T11:09:49.152Z,43.32
2022-10-23T11:12:21.572Z,43.50
2022-10-23T11:14:48.215Z,42.20
2022-10-23T11:17:24.455Z,41.34
2022-10-23T11:20:04.064Z,41.63
2022-10-23T11:22:37.303Z,40.85
2022-10-23T11:25:12.815Z,42.11
2022-10-23T11:28:16.950Z,42.15
2022-10-23T11:31:19.109Z,42.24
2022-10-23T11:34:07.662Z,40.99
2022-10-23T11:36:56.639Z,41.39
2022-10-23T11:39:27.917Z,40.19
2022-10-23T11:42:06.829Z,40.83
2022-10-23T11:44:43.662Z,40.83
2022-10-23T11:47:31.984Z,39.59
2022-10-23T11:50:06.669Z,40.26
2022-10-23T11:52:41.981Z,40.70
2022-10-23T11:55:25.177Z,39.60
2022-10-23T11:58:20.333Z,39.51
2022-10-23T12:00:56.733Z,39.70
2022-10-23T12:03:27.051Z,38.48
2022-10-23T12:05:59.227Z,38.77
2022-10-23T12:08:27.489Z,38.06
2022-10-23T12:10:55.276Z,39.08
2022-10-23T12:13:37.411Z,37.73
2022-10-23T12:16:05.835Z,38.82
2022-10-23T12:18:53.524Z,36.65
2022-10-23T12:21:22.191Z,36.59
2022-10-23T12:24:12.875Z,37.48
2022-10-23T12:27:01.119Z,37.20
2022-10-23T12:30:00.102Z,37.44
2022-10-23T12:32:54.172Z,36.51
2022-10-23T12:35:20.648Z,35.50
2022-10-23T12:38:09.863Z,35.92
2022-10-23T12:40:36.430Z,35.59
2022-10-23T12:43:03.086Z,35.98
2022-10-23T12:45:35.005Z,35.97
2022-10-23T12:48:01.722Z,34.12
2022-10-23T12:50:30.452Z,35.28
2022-10-23T12:53:01.838Z,34.19
2022-10-23T12:55:32.237Z,34.33
2022-10-23T12:58:01.843Z,34.55
2022-10-23T13:08:40.876Z,33.43
2022-10-23T13:11:08.764Z,34.18
2022-10-23T13:13:35.348Z,34.07
2022-10-23T13:16:02.059Z,33.81
2022-10-23T13:18:28.676Z,33.41
2022-10-23T13:20:57.486Z,34.30
2022-10-23T13:23:34.248Z,33.76
2022-10-23T13:26:05.701Z,32.43
2022-10-23T13:28:41.349Z,32.85
2022-10-23T13:31:10.888Z,33.21
2022-10-23T13:33:39.000Z,32.66
2022-10-23T13:36:14.466Z,32.63
2022-10-23T13:38:42.343Z,33.50
2022-10-23T13:41:17.194Z,33.55
2022-10-23T13:43:44.163Z,34.43
2022-10-23T13:46:17.787Z,34.63
2022-10-23T13:48:44.543Z,34.53
2022-10-23T13:51:28.438Z,34.04
2022-10-23T13:53:55.843Z,33.67
2022-10-23T13:56:23.362Z,35.02
2022-10-23T13:58:50.046Z,34.00
2022-10-23T14:01:22.264Z,34.40
2022-10-23T14:03:52.275Z,33.44
2022-10-23T14:06:19.029Z,33.39
2022-10-23T14:08:45.787Z,33.87
2022-10-23T14:11:12.746Z,33.46
2022-10-23T14:13:39.434Z,33.33
2022-10-23T14:16:06.500Z,33.99
2022-10-23T14:18:33.135Z,34.33
2022-10-23T14:21:08.239Z,33.31
2022-10-23T14:23:34.938Z,33.62
2022-10-23T14:26:02.867Z,32.88
2022-10-23T14:28:29.500Z,33.75
2022-10-23T14:30:56.099Z,34.81
2022-10-23T14:33:22.792Z,33.61
2022-10-23T14:35:52.425Z,33.84
2022-10-23T14:38:19.091Z,34.28
2022-10-23T14:40:45.640Z,33.71
2022-10-23T14:43:12.302Z,35.03
2022-10-23T14:45:38.980Z,34.78
2022-10-23T14:48:05.758Z,34.89
2022-10-23T14:50:32.659Z,34.53
2022-10-23T14:55:30.751Z,35.04
2022-10-23T14:57:57.400Z,35.24
2022-10-23T15:00:24.172Z,36.24
2022-10-23T15:02:50.833Z,36.17
2022-10-23T15:05:17.764Z,35.95
2022-10-23T15:07:44.443Z,36.13
2022-10-23T15:10:11.194Z,36.89
2022-10-23T15:12:38.451Z,37.57
2022-10-23T15:15:06.165Z,37.38
2022-10-23T15:17:34.041Z,37.35
2022-10-23T15:20:00.926Z,37.81
2022-10-23T15:22:27.792Z,38.17
2022-10-23T15:24:55.095Z,38.70
2022-10-23T15:27:21.792Z,40.08
2022-10-23T15:29:48.434Z,41.08
2022-10-23T15:32:15.139Z,40.05
2022-10-23T15:34:42.856Z,40.78
2022-10-23T15:37:09.860Z,41.71
2022-10-23T15:39:36.722Z,42.61
2022-10-23T15:42:04.612Z,43.46
2022-10-23T15:44:31.810Z,43.86
2022-10-23T15:46:58.551Z,45.35
2022-10-23T15:49:25.796Z,45.77
2022-10-23T15:51:52.598Z,46.16
2022-10-23T15:54:19.535Z,45.79
2022-10-23T15:56:47.262Z,45.91
2022-10-23T15:59:14.339Z,46.24
2022-10-23T16:01:41.103Z,46.37
2022-10-23T16:04:07.874Z,46.83
2022-10-23T16:06:34.582Z,46.25
2022-10-23T16:09:01.266Z,46.01
2022-10-23T16:11:29.766Z,46.39
2022-10-23T16:13:57.152Z,46.89
2022-10-23T16:16:23.992Z,46.47
2022-10-23T16:18:50.688Z,47.10
2022-10-23T16:21:20.695Z,46.78
2022-10-23T16:23:47.302Z,47.22
2022-10-23T16:26:13.971Z,47.38
2022-10-23T16:28:40.732Z,49.07
2022-10-23T16:31:12.911Z,51.78
2022-10-23T16:33:41.131Z,52.30
2022-10-23T16:36:08.628Z,51.99
2022-10-23T16:38:35.644Z,52.35
2022-10-23T16:41:03.695Z,52.33
2022-10-23T16:43:33.666Z,52.92
2022-10-23T16:46:19.821Z,53.72
2022-10-23T16:48:46.655Z,53.11
2022-10-23T16:51:14.854Z,53.02
2022-10-23T16:53:41.922Z,52.50
2022-10-23T16:56:09.527Z,53.19
2022-10-23T16:58:36.319Z,53.03
2022-10-23T17:01:05.936Z,53.54
2022-10-23T17:03:40.847Z,52.85
2022-10-23T17:06:11.247Z,54.19
2022-10-23T17:08:38.310Z,54.10
2022-10-23T17:11:23.740Z,53.66
2022-10-23T17:13:58.625Z,54.58
2022-10-23T17:16:39.232Z,54.41
2022-10-23T17:19:15.989Z,55.23
2022-10-23T17:21:47.883Z,55.23
2022-10-23T17:24:14.529Z,55.08
2022-10-23T17:26:41.150Z,55.14
2022-10-23T17:29:09.135Z,55.20
2022-10-23T17:31:39.843Z,56.45
2022-10-23T17:34:07.655Z,56.92
2022-10-23T17:36:37.092Z,58.11
2022-10-23T17:39:06.956Z,58.26
2022-10-23T17:41:34.552Z,57.30
2022-10-23T17:44:01.262Z,57.08
2022-10-23T17:46:29.198Z,57.10
2022-10-23T17:49:00.303Z,56.91
2022-10-23T17:51:28.138Z,57.33
2022-10-23T17:53:55.927Z,58.08
2022-10-23T17:56:24.439Z,58.46
2022-10-23T17:58:55.107Z,58.29
2022-10-23T18:01:25.162Z,60.44
2022-10-23T18:03:52.664Z,62.14
2022-10-23T18:06:23.449Z,62.23
2022-10-23T18:08:52.541Z,60.93
2022-10-23T18:11:27.947Z,60.29
2022-10-23T18:13:54.699Z,60.49
2022-10-23T18:16:21.377Z,60.36
2022-10-23T18:18:48.387Z,62.12
2022-10-23T18:21:15.951Z,62.76
2022-10-23T18:23:42.641Z,62.74
2022-10-23T18:26:23.104Z,62.24
2022-10-23T18:28:51.044Z,63.21
2022-10-23T18:31:18.283Z,63.43
2022-10-23T18:33:45.022Z,63.36
2022-10-23T18:36:22.794Z,63.77
2022-10-23T18:38:49.579Z,63.97
2022-10-23T18:41:16.635Z,62.80
2022-10-23T18:43:44.715Z,62.59
2022-10-23T18:46:14.289Z,62.71
